Phillipsport, New York
Current Conditions -  °F | °C
As of 3:54 PM on Sunday 21 Dec 2014 (Local Time) from KMGJ Reporting Station
Overcast Overcast  
Wind Chill: 28°   Ceiling: 2800
Heat Index: 33°   Visibility: 10mi
Dew Point: 27°   Wind: 6mph
Humidity: 78%   Direction: 30°NNE
Pressure: 30.28"   Gusts: NA
Location:  41.65°N, 74.44°W
Report Text: KMGJ 212054Z AUTO 03005KT 10SM OVC028 01/M03 A3028 RMK AO2 SLP259 T00061028 53001 TSNO
Loading
Personal Weather Stations






























Interactive Weather Map New forecast layout! Learn more

10-Day Weather Forecast

Advertisements
Track Severe Weather on mobile